Cameron, Louisiana
Current Conditions -  °F | °C
As of 7:15 PM on Saturday 22 Nov 2014 (Local Time) from KCVW Reporting Station
Haze Haze  
Wind Chill: 63°   Ceiling: NA
Heat Index: 63°   Visibility: 3mi
Dew Point: 61°   Wind: 21mph
Humidity: 94%   Direction: 110°ESE
Pressure: 29.9"   Gusts: NA
Location:  29.8°N, 93.33°W
Report Text: KCVW 230115Z AUTO 11018KT 3SM BR 17/16 A2990 RMK A01
Loading
Personal Weather Stations






























Interactive Weather Map New forecast layout! Learn more

10-Day Weather Forecast

Advertisements
Track Severe Weather on mobile